createdAt,value
2023-01-13T00:00:22.817Z,0.26
2023-01-13T00:03:25.077Z,0.30
2023-01-13T00:06:27.386Z,0.18
2023-01-13T00:09:29.965Z,0.15
2023-01-13T00:12:32.196Z,0.22
2023-01-13T00:15:34.395Z,0.30
2023-01-13T00:18:39.629Z,0.22
2023-01-13T00:21:41.991Z,0.08
2023-01-13T00:24:44.145Z,-0.12
2023-01-13T00:27:46.383Z,-0.12
2023-01-13T00:30:48.552Z,-0.06
2023-01-13T00:33:51.184Z,-0.06
2023-01-13T00:36:53.349Z,-0.09
2023-01-13T00:39:55.582Z,-0.12
2023-01-13T00:43:16.323Z,-0.12
2023-01-13T00:46:21.045Z,-0.24
2023-01-13T00:49:23.242Z,-0.24
2023-01-13T00:52:25.457Z,-0.26
2023-01-13T00:55:30.441Z,-0.10
2023-01-13T00:58:33.913Z,-0.14
2023-01-13T01:01:36.154Z,-0.07
2023-01-13T01:04:38.488Z,0.04
2023-01-13T01:07:40.619Z,0.11
2023-01-13T01:10:42.867Z,0.24
2023-01-13T01:13:45.964Z,0.33
2023-01-13T01:16:48.153Z,0.36
2023-01-13T01:19:50.336Z,0.33
2023-01-13T01:22:52.618Z,0.30
2023-01-13T01:25:55.105Z,0.25
2023-01-13T01:28:57.842Z,0.28
2023-01-13T01:32:01.077Z,0.21
2023-01-13T01:35:03.403Z,0.11
2023-01-13T01:38:05.678Z,0.02
2023-01-13T01:41:08.147Z,-0.12
2023-01-13T01:44:50.633Z,-0.16
2023-01-13T01:48:01.198Z,-0.13
2023-01-13T01:51:04.333Z,-0.09
2023-01-13T01:54:09.476Z,-0.14
2023-01-13T01:57:17.659Z,-0.24
2023-01-13T02:00:20.300Z,-0.23
2023-01-13T02:03:22.823Z,-0.26
2023-01-13T02:06:25.838Z,-0.27
2023-01-13T02:09:28.216Z,-0.32
2023-01-13T02:12:31.815Z,-0.34
2023-01-13T02:15:36.634Z,-0.36
2023-01-13T02:18:52.677Z,-0.40
2023-01-13T02:22:45.339Z,-0.38
2023-01-13T02:26:26.616Z,-0.34
2023-01-13T02:30:11.272Z,-0.34
2023-01-13T02:33:27.994Z,-0.33
2023-01-13T02:36:51.754Z,-0.30
2023-01-13T02:40:06.243Z,-0.36
2023-01-13T02:43:35.841Z,-0.40
2023-01-13T02:46:48.969Z,-0.44
2023-01-13T02:50:03.850Z,-0.36
2023-01-13T02:53:14.556Z,-0.34
2023-01-13T02:56:18.033Z,-0.36
2023-01-13T02:59:21.038Z,-0.34
2023-01-13T03:02:25.104Z,-0.36
2023-01-13T03:05:28.248Z,-0.40
2023-01-13T03:08:39.813Z,-0.36
2023-01-13T03:12:02.226Z,-0.36
2023-01-13T03:15:13.272Z,-0.38
2023-01-13T03:18:34.733Z,-0.38
2023-01-13T03:21:56.894Z,-0.47
2023-01-13T03:25:05.122Z,-0.47
2023-01-13T03:28:14.774Z,-0.53
2023-01-13T03:31:22.782Z,-0.58
2023-01-13T03:34:32.915Z,-0.64
2023-01-13T03:37:39.466Z,-0.65
2023-01-13T03:40:50.341Z,-0.71
2023-01-13T03:44:19.565Z,-0.80
2023-01-13T03:47:47.078Z,-0.87
2023-01-13T03:50:52.119Z,-0.84
2023-01-13T03:54:09.616Z,-0.88
2023-01-13T03:57:15.189Z,-0.84
2023-01-13T04:00:19.617Z,-0.87
2023-01-13T04:03:56.593Z,-0.88
2023-01-13T04:07:15.563Z,-0.83
2023-01-13T04:10:31.768Z,-0.75
2023-01-13T04:13:38.242Z,-0.81
2023-01-13T04:16:41.133Z,-0.75
2023-01-13T04:19:43.367Z,-0.74
2023-01-13T04:22:45.682Z,-0.64
2023-01-13T04:25:48.717Z,-0.64
2023-01-13T04:28:51.993Z,-0.67
2023-01-13T04:31:54.296Z,-0.56
2023-01-13T04:34:56.621Z,-0.54
2023-01-13T04:38:02.329Z,-0.54
2023-01-13T04:41:04.780Z,-0.49
2023-01-13T04:44:07.105Z,-0.37
2023-01-13T04:47:09.362Z,-0.38
2023-01-13T04:50:11.802Z,-0.33
2023-01-13T04:53:14.141Z,-0.30
2023-01-13T04:56:16.317Z,-0.30
2023-01-13T04:59:18.595Z,-0.27
2023-01-13T05:02:20.854Z,-0.17
2023-01-13T05:05:23.164Z,-0.14
2023-01-13T05:08:25.368Z,0.01
2023-01-13T05:11:56.627Z,0.07
2023-01-13T05:15:17.613Z,0.08
2023-01-13T05:18:20.391Z,0.09
2023-01-13T05:21:41.507Z,0.30
2023-01-13T05:25:02.352Z,0.29
2023-01-13T05:28:04.962Z,0.25
2023-01-13T05:31:07.248Z,0.36
2023-01-13T05:34:09.597Z,0.33
2023-01-13T05:37:13.309Z,0.29
2023-01-13T05:40:36.780Z,0.35
2023-01-13T05:43:39.092Z,0.19
2023-01-13T05:46:42.034Z,0.17
2023-01-13T05:49:44.341Z,0.18
2023-01-13T05:52:46.817Z,0.12
2023-01-13T05:55:49.225Z,0.15
2023-01-13T05:58:51.400Z,0.15
2023-01-13T06:01:53.652Z,0.22
2023-01-13T06:04:55.831Z,0.21
2023-01-13T06:08:02.597Z,0.12
2023-01-13T06:11:04.851Z,0.18
2023-01-13T06:14:07.137Z,0.19
2023-01-13T06:17:12.092Z,0.26
2023-01-13T06:20:16.253Z,0.29
2023-01-13T06:23:19.051Z,0.28
2023-01-13T06:26:23.998Z,0.38
2023-01-13T06:29:26.129Z,0.53
2023-01-13T06:32:33.492Z,0.48
2023-01-13T06:35:38.764Z,0.52
2023-01-13T06:38:48.961Z,0.58
2023-01-13T06:42:12.562Z,0.73
2023-01-13T06:45:15.153Z,0.80
2023-01-13T06:48:18.959Z,0.84
2023-01-13T06:51:21.291Z,0.93
2023-01-13T06:54:23.540Z,1.14
2023-01-13T06:57:28.568Z,1.18
2023-01-13T07:00:32.523Z,1.47
2023-01-13T07:03:34.897Z,1.23
2023-01-13T07:06:39.217Z,1.14
2023-01-13T07:09:47.741Z,1.10
2023-01-13T07:13:12.077Z,1.27
2023-01-13T07:16:14.609Z,1.23
2023-01-13T07:19:26.481Z,1.31
2023-01-13T07:22:29.024Z,1.31
2023-01-13T07:25:34.243Z,1.48
2023-01-13T07:28:37.697Z,1.44
2023-01-13T07:31:40.099Z,1.51
2023-01-13T07:34:42.723Z,1.52
2023-01-13T07:37:51.146Z,1.62
2023-01-13T07:40:53.812Z,1.73
2023-01-13T07:43:56.085Z,1.73
2023-01-13T07:46:58.522Z,1.81
2023-01-13T07:50:00.943Z,1.89
2023-01-13T07:53:03.480Z,1.87
2023-01-13T07:56:07.473Z,2.10
2023-01-13T07:59:09.964Z,2.26
2023-01-13T08:02:16.463Z,2.47
2023-01-13T08:05:20.062Z,2.74
2023-01-13T08:08:24.468Z,2.60
2023-01-13T08:11:28.843Z,2.58
2023-01-13T08:14:36.933Z,2.72
2023-01-13T08:17:39.664Z,2.84
2023-01-13T08:20:42.338Z,3.04
2023-01-13T08:23:45.634Z,3.09
2023-01-13T08:26:48.238Z,2.84
2023-01-13T08:29:51.101Z,3.20
2023-01-13T08:32:53.639Z,3.06
2023-01-13T08:36:10.809Z,3.12
2023-01-13T08:39:23.763Z,3.60
2023-01-13T08:42:27.209Z,3.44
2023-01-13T08:45:29.765Z,4.01
2023-01-13T08:48:34.379Z,4.15
2023-01-13T08:51:39.387Z,4.34
2023-01-13T08:54:41.774Z,4.87
2023-01-13T08:57:46.915Z,4.75
2023-01-13T09:00:50.983Z,5.71
2023-01-13T09:04:06.191Z,6.21
2023-01-13T09:07:11.935Z,5.58
2023-01-13T09:10:14.464Z,6.16
2023-01-13T09:13:17.369Z,6.75
2023-01-13T09:16:20.777Z,6.63
2023-01-13T09:19:24.132Z,6.99
2023-01-13T09:22:29.928Z,7.01
2023-01-13T09:25:32.676Z,7.62
2023-01-13T09:28:43.415Z,7.52
2023-01-13T09:31:48.786Z,7.35
2023-01-13T09:35:02.872Z,7.33
2023-01-13T09:38:07.071Z,6.89
2023-01-13T09:41:40.995Z,6.07
2023-01-13T09:44:56.392Z,5.73
2023-01-13T09:48:10.666Z,6.02
2023-01-13T09:51:21.055Z,5.85
2023-01-13T09:54:39.679Z,5.82
2023-01-13T09:57:42.605Z,5.79
2023-01-13T10:00:59.043Z,5.58
2023-01-13T10:04:10.332Z,5.37
2023-01-13T10:07:15.109Z,5.66
2023-01-13T10:10:33.222Z,5.55
2023-01-13T10:13:35.736Z,5.56
2023-01-13T10:16:44.342Z,5.35
2023-01-13T10:19:59.593Z,5.51
2023-01-13T10:23:50.238Z,5.49
2023-01-13T10:27:04.876Z,5.71
2023-01-13T10:30:31.617Z,5.85
2023-01-13T10:33:34.209Z,5.89
2023-01-13T10:36:36.509Z,5.76
2023-01-13T10:39:46.788Z,5.71
2023-01-13T10:42:50.899Z,5.71
2023-01-13T10:46:10.733Z,5.88
2023-01-13T10:49:34.168Z,5.88
2023-01-13T10:53:00.726Z,6.07
2023-01-13T10:56:10.932Z,6.24
2023-01-13T10:59:33.435Z,6.05
2023-01-13T11:02:42.105Z,6.14
2023-01-13T11:05:59.247Z,6.47
2023-01-13T11:09:03.366Z,6.61
2023-01-13T11:12:05.878Z,6.88
2023-01-13T11:15:17.290Z,7.13
2023-01-13T11:18:35.444Z,7.56
2023-01-13T11:21:50.827Z,7.44
2023-01-13T11:25:01.974Z,9.45
2023-01-13T11:28:12.986Z,10.61
2023-01-13T11:31:22.538Z,9.88
2023-01-13T11:34:40.420Z,8.72
2023-01-13T11:37:47.530Z,10.46
2023-01-13T11:40:52.985Z,10.68
2023-01-13T11:44:22.503Z,12.86
2023-01-13T11:47:26.874Z,14.60
2023-01-13T11:50:55.253Z,13.98
2023-01-13T11:54:41.744Z,12.03
2023-01-13T11:57:51.339Z,11.62
2023-01-13T12:01:41.585Z,12.76
2023-01-13T12:04:49.637Z,11.01
2023-01-13T12:07:54.890Z,13.86
2023-01-13T12:10:57.045Z,15.95
2023-01-13T12:14:32.390Z,17.46
2023-01-13T12:17:52.853Z,13.17
2023-01-13T12:21:17.778Z,11.02
2023-01-13T12:24:47.989Z,10.29
2023-01-13T12:28:00.600Z,10.32
2023-01-13T12:31:03.773Z,11.11
2023-01-13T12:34:32.210Z,12.65
2023-01-13T12:38:21.242Z,10.59
2023-01-13T12:41:31.411Z,10.37
2023-01-13T12:44:33.599Z,9.71
2023-01-13T12:47:37.471Z,9.93
2023-01-13T12:50:40.974Z,10.49
2023-01-13T12:53:43.380Z,10.84
2023-01-13T12:56:45.876Z,10.77
2023-01-13T13:00:00.159Z,10.56
2023-01-13T13:03:12.269Z,9.95
2023-01-13T13:06:23.744Z,10.78
2023-01-13T13:09:33.146Z,10.43
2023-01-13T13:12:59.738Z,11.43
2023-01-13T13:16:27.101Z,12.21
2023-01-13T13:19:32.329Z,11.38
2023-01-13T13:22:39.037Z,10.16
2023-01-13T13:26:01.360Z,9.65
2023-01-13T13:29:22.213Z,8.87
2023-01-13T13:32:30.267Z,8.41
2023-01-13T13:35:41.523Z,8.67
2023-01-13T13:39:34.409Z,8.04
2023-01-13T13:43:00.954Z,7.77
2023-01-13T13:46:49.412Z,7.57
2023-01-13T13:49:54.455Z,7.59
2023-01-13T13:53:05.922Z,7.47
2023-01-13T13:56:23.117Z,7.40
2023-01-13T13:59:30.578Z,7.19
2023-01-13T14:02:37.259Z,7.11
2023-01-13T14:05:39.515Z,6.95
2023-01-13T14:08:50.094Z,6.92
2023-01-13T14:11:57.001Z,6.89
2023-01-13T14:15:00.001Z,6.88
2023-01-13T14:18:05.730Z,6.88
2023-01-13T14:21:26.726Z,6.82
2023-01-13T14:24:30.259Z,6.95
2023-01-13T14:27:33.278Z,6.99
2023-01-13T14:30:36.428Z,6.89
2023-01-13T14:33:44.019Z,6.71
2023-01-13T14:36:50.996Z,6.74
2023-01-13T14:39:53.321Z,6.75
2023-01-13T14:43:02.731Z,6.64
2023-01-13T14:46:05.017Z,6.55
2023-01-13T14:49:24.001Z,6.47
2023-01-13T14:52:29.461Z,6.44
2023-01-13T14:55:38.549Z,6.41
2023-01-13T14:58:40.778Z,6.44
2023-01-13T15:01:43.093Z,6.41
2023-01-13T15:04:45.350Z,6.38
2023-01-13T15:07:56.061Z,6.36
2023-01-13T15:11:01.006Z,6.34
2023-01-13T15:14:10.732Z,6.31
2023-01-13T15:17:17.447Z,6.29
2023-01-13T15:20:24.413Z,6.30
2023-01-13T15:23:26.676Z,6.33
2023-01-13T15:26:30.071Z,6.31
2023-01-13T15:29:33.056Z,6.24
2023-01-13T15:32:35.318Z,6.21
2023-01-13T15:35:39.129Z,6.23
2023-01-13T15:38:41.400Z,6.21
2023-01-13T15:42:01.993Z,6.19
2023-01-13T15:45:23.005Z,6.23
2023-01-13T15:48:31.783Z,6.26
2023-01-13T15:51:34.068Z,6.47
2023-01-13T15:54:36.277Z,6.53
2023-01-13T15:57:39.926Z,6.57
2023-01-13T16:00:42.678Z,6.70
2023-01-13T16:03:44.977Z,6.57
2023-01-13T16:06:47.638Z,6.64
2023-01-13T16:09:50.360Z,6.70
2023-01-13T16:12:53.362Z,6.54
2023-01-13T16:15:56.776Z,6.50
2023-01-13T16:18:59.031Z,6.41
2023-01-13T16:22:01.333Z,6.38
2023-01-13T16:25:03.651Z,6.36
2023-01-13T16:28:06.532Z,6.38
2023-01-13T16:31:22.290Z,6.31
2023-01-13T16:34:24.561Z,6.27
2023-01-13T16:37:27.708Z,6.20
2023-01-13T16:40:33.497Z,6.21
2023-01-13T16:43:36.186Z,6.19
2023-01-13T16:46:39.096Z,6.21
2023-01-13T16:49:47.076Z,6.20
2023-01-13T16:52:49.397Z,6.24
2023-01-13T16:55:51.610Z,6.20
2023-01-13T16:58:57.177Z,6.20
2023-01-13T17:01:59.495Z,6.19
2023-01-13T17:05:01.788Z,6.12
2023-01-13T17:08:04.125Z,6.16
2023-01-13T17:11:06.423Z,6.10
2023-01-13T17:14:19.299Z,6.03
2023-01-13T17:17:24.925Z,6.02
2023-01-13T17:20:27.408Z,6.06
2023-01-13T17:23:31.514Z,6.07
2023-01-13T17:26:44.163Z,5.99
2023-01-13T17:29:46.583Z,5.93
2023-01-13T17:32:48.873Z,5.86
2023-01-13T17:35:51.131Z,5.83
2023-01-13T17:38:54.843Z,5.79
2023-01-13T17:42:06.033Z,5.75
2023-01-13T17:45:11.409Z,5.65
2023-01-13T17:48:13.721Z,5.61
2023-01-13T17:51:17.736Z,5.59
2023-01-13T17:54:20.536Z,5.48
2023-01-13T17:57:22.734Z,5.41
2023-01-13T18:00:25.126Z,5.41
2023-01-13T18:03:27.283Z,5.40
2023-01-13T18:06:29.569Z,5.37
2023-01-13T18:09:33.158Z,5.34
2023-01-13T18:12:35.367Z,5.28
2023-01-13T18:15:37.549Z,5.21
2023-01-13T18:18:41.853Z,5.21
2023-01-13T18:22:03.670Z,5.20
2023-01-13T18:25:24.850Z,5.16
2023-01-13T18:28:27.056Z,5.13
2023-01-13T18:31:29.328Z,5.13
2023-01-13T18:34:31.648Z,5.08
2023-01-13T18:37:38.866Z,5.03
2023-01-13T18:40:44.606Z,5.03
2023-01-13T18:43:47.261Z,5.01
2023-01-13T18:46:49.680Z,4.97
2023-01-13T18:49:52.650Z,4.99
2023-01-13T18:52:55.333Z,4.99
2023-01-13T18:55:57.571Z,4.94
2023-01-13T18:59:01.740Z,4.94
2023-01-13T19:02:09.193Z,4.94
2023-01-13T19:05:11.526Z,4.90
2023-01-13T19:08:15.575Z,4.90
2023-01-13T19:11:19.606Z,4.93
2023-01-13T19:14:34.628Z,4.89
2023-01-13T19:17:36.919Z,4.86
2023-01-13T19:20:39.224Z,4.89
2023-01-13T19:23:41.662Z,4.86
2023-01-13T19:26:43.905Z,4.79
2023-01-13T19:29:52.516Z,4.80
2023-01-13T19:32:55.128Z,4.77
2023-01-13T19:35:57.838Z,4.79
2023-01-13T19:39:00.073Z,4.75
2023-01-13T19:42:21.099Z,4.72
2023-01-13T19:45:26.573Z,4.76
2023-01-13T19:48:29.259Z,4.73
2023-01-13T19:51:31.473Z,4.75
2023-01-13T19:54:33.692Z,4.80
2023-01-13T19:57:36.209Z,4.84
2023-01-13T20:00:46.953Z,4.87
2023-01-13T20:03:50.528Z,5.04
2023-01-13T20:06:52.731Z,5.11
2023-01-13T20:09:57.975Z,5.13
2023-01-13T20:13:00.902Z,5.13
2023-01-13T20:16:05.286Z,5.06
2023-01-13T20:19:07.474Z,5.07
2023-01-13T20:22:10.633Z,4.96
2023-01-13T20:25:16.821Z,4.99
2023-01-13T20:28:20.030Z,5.04
2023-01-13T20:31:22.345Z,5.01
2023-01-13T20:34:25.988Z,4.89
2023-01-13T20:37:28.200Z,4.84
2023-01-13T20:40:30.475Z,4.93
2023-01-13T20:43:32.680Z,4.94
2023-01-13T20:46:34.936Z,4.99
2023-01-13T20:49:37.235Z,4.97
2023-01-13T20:52:39.520Z,4.91
2023-01-13T20:55:41.735Z,4.91
2023-01-13T20:58:44.302Z,4.84
2023-01-13T21:01:46.731Z,4.80
2023-01-13T21:04:49.057Z,4.79
2023-01-13T21:07:51.236Z,4.52
2023-01-13T21:11:00.140Z,4.52
2023-01-13T21:14:20.983Z,4.60
2023-01-13T21:17:42.098Z,4.59
2023-01-13T21:20:44.280Z,4.53
2023-01-13T21:23:49.956Z,4.55
2023-01-13T21:27:01.414Z,4.48
2023-01-13T21:30:04.222Z,4.59
2023-01-13T21:33:07.248Z,4.56
2023-01-13T21:36:12.907Z,4.53
2023-01-13T21:39:16.108Z,4.25
2023-01-13T21:42:36.834Z,4.26
2023-01-13T21:45:58.169Z,4.05
2023-01-13T21:49:00.672Z,3.95
2023-01-13T21:52:09.780Z,4.01
2023-01-13T21:55:25.704Z,4.12
2023-01-13T21:58:27.959Z,4.31
2023-01-13T22:01:30.280Z,4.35
2023-01-13T22:04:32.697Z,4.32
2023-01-13T22:07:36.411Z,4.34
2023-01-13T22:10:57.065Z,4.04
2023-01-13T22:14:06.515Z,4.15
2023-01-13T22:17:08.709Z,4.08
2023-01-13T22:20:11.874Z,4.09
2023-01-13T22:23:14.088Z,4.15
2023-01-13T22:26:17.627Z,4.05
2023-01-13T22:29:19.836Z,3.98
2023-01-13T22:32:22.137Z,4.02
2023-01-13T22:35:24.311Z,4.08
2023-01-13T22:38:26.617Z,4.14
2023-01-13T22:41:28.885Z,4.12
2023-01-13T22:44:32.691Z,4.24
2023-01-13T22:47:34.941Z,4.36
2023-01-13T22:50:37.189Z,4.09
2023-01-13T22:53:40.290Z,3.99
2023-01-13T22:56:42.534Z,3.90
2023-01-13T22:59:44.699Z,3.83
2023-01-13T23:02:47.032Z,3.85
2023-01-13T23:05:55.269Z,3.87
2023-01-13T23:08:57.839Z,4.05
2023-01-13T23:12:01.091Z,4.04
2023-01-13T23:15:04.304Z,3.95
2023-01-13T23:18:06.534Z,4.02
2023-01-13T23:21:12.536Z,4.19
2023-01-13T23:24:14.814Z,4.12
2023-01-13T23:27:17.123Z,4.21
2023-01-13T23:30:19.392Z,4.12
2023-01-13T23:33:22.003Z,4.05
2023-01-13T23:36:26.858Z,4.14
2023-01-13T23:39:29.788Z,4.24
2023-01-13T23:42:32.012Z,4.46
2023-01-13T23:45:34.264Z,4.52
2023-01-13T23:48:36.948Z,4.56
2023-01-13T23:51:39.200Z,4.67
2023-01-13T23:54:41.395Z,4.70
2023-01-13T23:57:43.625Z,4.70
